createdAt,value
2022-10-30T00:01:19.710Z,99.26
2022-10-30T00:03:47.065Z,99.09
2022-10-30T00:06:14.646Z,98.77
2022-10-30T00:08:44.710Z,98.50
2022-10-30T00:11:13.330Z,98.40
2022-10-30T00:13:44.640Z,98.87
2022-10-30T00:16:12.032Z,98.87
2022-10-30T00:18:42.138Z,98.38
2022-10-30T00:21:12.345Z,98.59
2022-10-30T00:23:40.997Z,98.25
2022-10-30T00:26:08.583Z,96.95
2022-10-30T00:28:35.951Z,95.99
2022-10-30T00:31:04.881Z,96.72
2022-10-30T00:33:32.662Z,97.14
2022-10-30T00:36:00.609Z,97.51
2022-10-30T00:38:28.067Z,96.92
2022-10-30T00:40:55.531Z,97.69
2022-10-30T00:43:33.965Z,97.45
2022-10-30T00:46:08.693Z,97.67
2022-10-30T00:48:36.553Z,97.81
2022-10-30T00:51:08.059Z,98.00
2022-10-30T00:53:35.749Z,98.06
2022-10-30T00:56:06.619Z,97.77
2022-10-30T00:58:39.752Z,97.39
2022-10-30T01:01:13.291Z,97.08
2022-10-30T01:03:41.014Z,97.44
2022-10-30T01:06:11.702Z,97.12
2022-10-30T01:08:39.876Z,97.04
2022-10-30T01:11:07.872Z,97.21
2022-10-30T01:13:36.973Z,97.59
2022-10-30T01:16:11.961Z,98.10
2022-10-30T01:18:49.723Z,98.30
2022-10-30T01:21:39.301Z,98.66
2022-10-30T01:24:29.171Z,98.22
2022-10-30T01:27:08.589Z,98.15
2022-10-30T01:29:51.053Z,97.81
2022-10-30T01:32:27.744Z,98.50
2022-10-30T01:34:59.737Z,99.15
2022-10-30T01:37:54.311Z,99.26
2022-10-30T01:40:23.835Z,99.35
2022-10-30T01:42:57.011Z,98.26
2022-10-30T01:45:39.814Z,97.93
2022-10-30T01:48:19.678Z,98.50
2022-10-30T01:51:00.425Z,98.58
2022-10-30T01:53:50.697Z,99.18
2022-10-30T01:56:18.021Z,99.22
2022-10-30T01:58:51.948Z,99.35
2022-10-30T02:01:20.313Z,99.39
2022-10-30T02:03:48.178Z,99.65
2022-10-30T02:06:15.753Z,99.79
2022-10-30T02:08:43.260Z,100.00
2022-10-30T02:11:11.293Z,100.00
2022-10-30T02:13:42.499Z,100.00
2022-10-30T02:16:10.727Z,100.00
2022-10-30T02:18:41.744Z,100.00
2022-10-30T02:21:09.322Z,100.00
2022-10-30T02:23:38.469Z,100.00
2022-10-30T02:26:06.017Z,100.00
2022-10-30T02:28:33.333Z,100.00
2022-10-30T02:31:03.612Z,100.00
2022-10-30T02:33:30.996Z,100.00
2022-10-30T02:35:58.384Z,100.00
2022-10-30T02:38:26.053Z,100.00
2022-10-30T02:40:53.506Z,100.00
2022-10-30T02:43:20.765Z,100.00
2022-10-30T02:45:55.425Z,100.00
2022-10-30T02:48:22.784Z,100.00
2022-10-30T02:50:50.122Z,100.00
2022-10-30T02:53:17.718Z,100.00
2022-10-30T02:55:46.341Z,100.00
2022-10-30T03:00:58.635Z,100.00
2022-10-30T03:03:26.497Z,100.00
2022-10-30T03:05:53.920Z,100.00
2022-10-30T03:08:22.372Z,100.00
2022-10-30T03:10:49.766Z,100.00
2022-10-30T03:13:17.070Z,100.00
2022-10-30T03:15:44.448Z,99.91
2022-10-30T03:18:13.341Z,100.00
2022-10-30T03:20:41.985Z,100.00
2022-10-30T03:23:09.394Z,100.00
2022-10-30T03:25:36.711Z,100.00
2022-10-30T03:28:04.150Z,100.00
2022-10-30T03:30:31.763Z,100.00
2022-10-30T03:33:01.937Z,100.00
2022-10-30T03:35:30.042Z,100.00
2022-10-30T03:37:57.564Z,100.00
2022-10-30T03:40:24.949Z,100.00
2022-10-30T03:42:52.313Z,100.00
2022-10-30T03:45:19.680Z,100.00
2022-10-30T03:47:47.033Z,100.00
2022-10-30T03:50:14.487Z,100.00
2022-10-30T03:52:41.884Z,100.00
2022-10-30T03:55:09.585Z,100.00
2022-10-30T03:57:39.900Z,100.00
2022-10-30T04:00:15.980Z,100.00
2022-10-30T04:02:53.986Z,100.00
2022-10-30T04:05:24.170Z,100.00
2022-10-30T04:08:01.897Z,100.00
2022-10-30T04:10:32.438Z,100.00
2022-10-30T04:13:06.911Z,99.48
2022-10-30T04:15:37.116Z,98.93
2022-10-30T04:18:04.890Z,99.65
2022-10-30T04:20:33.151Z,99.92
2022-10-30T04:23:03.546Z,100.00
2022-10-30T04:25:33.470Z,100.00
2022-10-30T04:28:01.353Z,100.00
2022-10-30T04:30:35.317Z,100.00
2022-10-30T04:33:05.376Z,100.00
2022-10-30T04:35:36.999Z,100.00
2022-10-30T04:38:12.600Z,100.00
2022-10-30T04:40:43.035Z,100.00
2022-10-30T04:43:13.031Z,100.00
2022-10-30T04:45:41.279Z,100.00
2022-10-30T04:48:12.938Z,100.00
2022-10-30T04:50:40.488Z,100.00
2022-10-30T04:53:13.070Z,100.00
2022-10-30T04:55:42.067Z,100.00
2022-10-30T04:58:14.516Z,100.00
2022-10-30T05:00:44.316Z,99.96
2022-10-30T05:03:23.041Z,100.00
2022-10-30T05:06:03.476Z,100.00
2022-10-30T05:08:30.791Z,100.00
2022-10-30T05:11:04.121Z,99.81
2022-10-30T05:13:31.979Z,99.19
2022-10-30T05:16:02.061Z,98.94
2022-10-30T05:18:29.422Z,99.20
2022-10-30T05:20:56.711Z,100.00
2022-10-30T05:23:24.362Z,100.00
2022-10-30T05:25:55.159Z,100.00
2022-10-30T05:28:22.472Z,100.00
2022-10-30T05:30:55.860Z,100.00
2022-10-30T05:33:41.795Z,100.00
2022-10-30T05:36:09.493Z,100.00
2022-10-30T05:38:36.857Z,100.00
2022-10-30T05:41:07.316Z,100.00
2022-10-30T05:43:35.543Z,100.00
2022-10-30T05:46:07.702Z,100.00
2022-10-30T05:48:35.258Z,100.00
2022-10-30T05:51:04.326Z,100.00
2022-10-30T05:53:31.672Z,100.00
2022-10-30T05:56:03.497Z,100.00
2022-10-30T05:58:34.676Z,100.00
2022-10-30T06:01:09.635Z,100.00
2022-10-30T06:03:44.680Z,100.00
2022-10-30T06:06:13.099Z,100.00
2022-10-30T06:08:40.813Z,100.00
2022-10-30T06:11:30.987Z,100.00
2022-10-30T06:14:01.276Z,100.00
2022-10-30T06:16:41.482Z,100.00
2022-10-30T06:19:29.079Z,100.00
2022-10-30T06:22:06.763Z,100.00
2022-10-30T06:24:38.645Z,100.00
2022-10-30T06:27:18.011Z,100.00
2022-10-30T06:29:45.392Z,100.00
2022-10-30T06:32:12.742Z,100.00
2022-10-30T06:34:42.865Z,100.00
2022-10-30T06:37:11.386Z,100.00
2022-10-30T06:39:42.328Z,100.00
2022-10-30T06:42:29.603Z,100.00
2022-10-30T06:45:09.556Z,99.37
2022-10-30T06:47:37.652Z,99.49
2022-10-30T06:50:07.046Z,99.80
2022-10-30T06:52:35.524Z,99.10
2022-10-30T06:55:07.343Z,97.84
2022-10-30T06:57:57.463Z,97.08
2022-10-30T07:00:51.162Z,95.45
2022-10-30T07:03:59.424Z,94.25
2022-10-30T07:06:26.860Z,93.78
2022-10-30T07:08:55.060Z,91.90
2022-10-30T07:11:22.490Z,89.01
2022-10-30T07:13:59.017Z,88.37
2022-10-30T07:16:48.254Z,87.31
2022-10-30T07:19:15.623Z,86.68
2022-10-30T07:21:43.038Z,86.44
2022-10-30T07:24:10.950Z,85.37
2022-10-30T07:27:10.761Z,84.69
2022-10-30T07:29:50.638Z,83.84
2022-10-30T07:32:24.689Z,81.76
2022-10-30T07:34:59.448Z,80.54
2022-10-30T07:37:46.749Z,80.02
2022-10-30T07:40:16.698Z,79.30
2022-10-30T07:43:01.703Z,79.52
2022-10-30T07:45:52.188Z,80.35
2022-10-30T07:48:59.833Z,80.83
2022-10-30T07:51:50.338Z,78.85
2022-10-30T07:54:18.725Z,77.97
2022-10-30T07:56:46.218Z,76.90
2022-10-30T07:59:45.877Z,77.07
2022-10-30T08:02:22.270Z,74.15
2022-10-30T08:05:13.760Z,68.30
2022-10-30T08:07:59.791Z,61.76
2022-10-30T08:10:28.544Z,58.67
2022-10-30T08:12:56.154Z,54.99
2022-10-30T08:15:24.027Z,51.85
2022-10-30T08:17:51.674Z,50.53
2022-10-30T08:20:21.676Z,50.71
2022-10-30T08:22:54.938Z,53.65
2022-10-30T08:25:31.810Z,54.26
2022-10-30T08:28:03.883Z,53.82
2022-10-30T08:30:37.500Z,53.20
2022-10-30T08:33:07.931Z,51.01
2022-10-30T08:35:56.669Z,50.37
2022-10-30T08:38:24.632Z,48.78
2022-10-30T08:41:10.964Z,48.07
2022-10-30T08:43:44.758Z,46.98
2022-10-30T08:46:12.196Z,46.15
2022-10-30T08:48:40.941Z,45.54
2022-10-30T08:51:08.917Z,45.15
2022-10-30T08:53:42.179Z,44.74
2022-10-30T08:56:13.637Z,44.40
2022-10-30T08:59:03.763Z,44.82
2022-10-30T09:01:31.510Z,43.37
2022-10-30T09:04:17.505Z,43.61
2022-10-30T09:06:48.366Z,43.82
2022-10-30T09:09:47.906Z,41.52
2022-10-30T09:12:16.816Z,41.61
2022-10-30T09:14:46.146Z,42.03
2022-10-30T09:17:13.459Z,43.32
2022-10-30T09:19:45.333Z,44.66
2022-10-30T09:22:20.893Z,47.22
2022-10-30T09:24:48.816Z,48.22
2022-10-30T09:27:39.618Z,46.11
2022-10-30T09:30:09.161Z,46.55
2022-10-30T09:32:42.585Z,47.78
2022-10-30T09:35:12.253Z,48.79
2022-10-30T09:37:42.203Z,48.64
2022-10-30T09:40:44.389Z,51.05
2022-10-30T09:43:31.372Z,52.61
2022-10-30T09:46:27.468Z,53.48
2022-10-30T09:48:54.848Z,53.63
2022-10-30T09:51:53.572Z,54.95
2022-10-30T09:54:51.124Z,55.97
2022-10-30T09:57:42.325Z,57.57
2022-10-30T10:00:10.993Z,58.04
2022-10-30T10:03:02.768Z,57.30
2022-10-30T10:05:51.341Z,57.44
2022-10-30T10:09:19.917Z,58.03
2022-10-30T10:12:29.225Z,58.51
2022-10-30T10:14:58.385Z,59.86
2022-10-30T10:17:34.941Z,59.81
2022-10-30T10:20:04.111Z,61.52
2022-10-30T10:22:49.773Z,61.73
2022-10-30T10:25:20.967Z,60.23
2022-10-30T10:28:06.845Z,63.52
2022-10-30T10:31:11.170Z,60.53
2022-10-30T10:34:15.056Z,60.30
2022-10-30T10:36:52.109Z,63.60
2022-10-30T10:39:37.787Z,63.94
2022-10-30T10:42:05.156Z,64.96
2022-10-30T10:45:03.469Z,64.73
2022-10-30T10:51:06.507Z,63.21
2022-10-30T10:53:54.513Z,62.74
2022-10-30T10:56:31.618Z,62.57
2022-10-30T10:59:03.217Z,60.48
2022-10-30T11:01:57.011Z,60.87
2022-10-30T11:04:34.864Z,62.75
2022-10-30T11:07:27.199Z,63.87
2022-10-30T11:09:55.461Z,63.39
2022-10-30T11:12:41.643Z,62.69
2022-10-30T11:15:40.261Z,62.04
2022-10-30T11:18:09.887Z,62.03
2022-10-30T11:20:56.383Z,62.04
2022-10-30T11:23:39.384Z,61.01
2022-10-30T11:26:27.107Z,61.33
2022-10-30T11:28:59.909Z,61.85
2022-10-30T11:31:35.062Z,61.14
2022-10-30T11:34:25.097Z,61.25
2022-10-30T11:36:54.203Z,61.16
2022-10-30T11:39:34.093Z,59.43
2022-10-30T11:42:10.449Z,58.75
2022-10-30T11:44:58.175Z,58.81
2022-10-30T11:50:15.807Z,58.97
2022-10-30T11:52:44.542Z,58.26
2022-10-30T11:55:28.154Z,59.35
2022-10-30T11:57:58.222Z,58.94
2022-10-30T12:00:28.730Z,57.30
2022-10-30T12:03:00.838Z,55.99
2022-10-30T12:05:32.788Z,56.35
2022-10-30T12:08:09.291Z,55.77
2022-10-30T12:10:59.898Z,55.55
2022-10-30T12:13:34.091Z,55.97
2022-10-30T12:16:20.381Z,56.87
2022-10-30T12:19:15.669Z,56.93
2022-10-30T12:21:48.835Z,57.13
2022-10-30T12:24:35.783Z,55.98
2022-10-30T12:27:06.948Z,56.09
2022-10-30T12:30:07.315Z,56.20
2022-10-30T12:32:47.879Z,56.62
2022-10-30T12:35:31.856Z,56.12
2022-10-30T12:38:02.898Z,55.69
2022-10-30T12:40:35.138Z,54.63
2022-10-30T12:43:08.201Z,54.92
2022-10-30T12:45:43.549Z,54.21
2022-10-30T12:48:29.153Z,53.81
2022-10-30T12:51:24.227Z,52.11
2022-10-30T12:54:15.668Z,53.46
2022-10-30T12:56:46.208Z,53.11
2022-10-30T12:59:40.190Z,53.37
2022-10-30T13:02:36.672Z,53.64
2022-10-30T13:05:38.785Z,52.46
2022-10-30T13:08:36.617Z,52.05
2022-10-30T13:11:14.120Z,52.12
2022-10-30T13:13:46.145Z,52.92
2022-10-30T13:16:16.740Z,53.02
2022-10-30T13:18:44.031Z,51.53
2022-10-30T13:21:11.330Z,51.36
2022-10-30T13:24:22.340Z,51.33
2022-10-30T13:26:55.598Z,51.35
2022-10-30T13:29:29.156Z,52.39
2022-10-30T13:32:34.077Z,51.65
2022-10-30T13:35:27.155Z,51.44
2022-10-30T13:38:34.426Z,50.93
2022-10-30T13:41:26.427Z,50.66
2022-10-30T13:43:59.975Z,51.05
2022-10-30T13:46:33.796Z,50.94
2022-10-30T13:49:38.629Z,50.26
2022-10-30T13:52:13.287Z,49.81
2022-10-30T13:54:52.843Z,50.16
2022-10-30T13:57:29.164Z,50.15
2022-10-30T14:00:21.125Z,50.05
2022-10-30T14:03:10.364Z,50.49
2022-10-30T14:05:46.534Z,50.47
2022-10-30T14:08:47.694Z,49.14
2022-10-30T14:11:15.177Z,49.27
2022-10-30T14:13:53.651Z,50.25
2022-10-30T14:16:39.038Z,50.61
2022-10-30T14:19:08.546Z,50.38
2022-10-30T14:21:43.699Z,50.50
2022-10-30T14:24:18.951Z,50.16
2022-10-30T14:27:11.120Z,50.36
2022-10-30T14:29:47.868Z,51.31
2022-10-30T14:32:15.135Z,50.74
2022-10-30T14:34:46.757Z,52.16
2022-10-30T14:37:14.213Z,52.11
2022-10-30T14:39:43.425Z,51.86
2022-10-30T14:42:24.284Z,52.47
2022-10-30T14:45:39.153Z,51.57
2022-10-30T14:48:34.063Z,51.31
2022-10-30T14:51:05.790Z,51.60
2022-10-30T14:53:59.315Z,51.42
2022-10-30T14:56:47.147Z,51.30
2022-10-30T14:59:16.493Z,50.96
2022-10-30T15:01:52.627Z,50.72
2022-10-30T15:04:36.592Z,50.45
2022-10-30T15:07:27.007Z,51.19
2022-10-30T15:10:04.884Z,51.57
2022-10-30T15:12:47.615Z,52.08
2022-10-30T15:15:18.771Z,52.24
2022-10-30T15:17:48.943Z,52.49
2022-10-30T15:20:22.627Z,53.00
2022-10-30T15:22:54.968Z,52.46
2022-10-30T15:25:24.484Z,51.85
2022-10-30T15:27:55.280Z,51.70
2022-10-30T15:30:27.305Z,52.17
2022-10-30T15:32:54.969Z,53.09
2022-10-30T15:35:27.764Z,53.17
2022-10-30T15:38:13.097Z,53.71
2022-10-30T15:40:40.511Z,53.32
2022-10-30T15:43:13.084Z,53.35
2022-10-30T15:45:43.571Z,54.29
2022-10-30T15:48:33.863Z,54.98
2022-10-30T15:51:06.782Z,54.84
2022-10-30T15:53:36.572Z,55.38
2022-10-30T15:56:05.476Z,55.71
2022-10-30T15:58:36.617Z,55.94
2022-10-30T16:01:04.157Z,56.20
2022-10-30T16:03:32.796Z,56.73
2022-10-30T16:06:14.478Z,58.04
2022-10-30T16:08:46.853Z,58.62
2022-10-30T16:11:17.970Z,59.43
2022-10-30T16:13:45.377Z,59.80
2022-10-30T16:16:31.641Z,60.50
2022-10-30T16:19:02.498Z,61.27
2022-10-30T16:21:31.064Z,63.24
2022-10-30T16:24:01.136Z,63.70
2022-10-30T16:26:36.909Z,64.95
2022-10-30T16:29:13.007Z,63.92
2022-10-30T16:31:43.975Z,63.47
2022-10-30T16:34:21.793Z,63.27
2022-10-30T16:36:50.201Z,64.97
2022-10-30T16:39:20.113Z,64.98
2022-10-30T16:41:51.635Z,65.14
2022-10-30T16:44:27.184Z,65.07
2022-10-30T16:47:17.536Z,66.85
2022-10-30T16:49:52.152Z,67.06
2022-10-30T16:52:24.618Z,67.19
2022-10-30T16:55:05.663Z,67.90
2022-10-30T16:57:36.700Z,69.06
2022-10-30T17:00:05.454Z,69.23
2022-10-30T17:02:37.154Z,69.42
2022-10-30T17:05:17.445Z,69.79
2022-10-30T17:07:55.621Z,69.72
2022-10-30T17:10:33.600Z,69.81
2022-10-30T17:13:33.343Z,71.04
2022-10-30T17:16:29.544Z,71.61
2022-10-30T17:19:20.833Z,72.19
2022-10-30T17:21:52.918Z,72.35
2022-10-30T17:24:22.005Z,72.81
2022-10-30T17:26:57.487Z,73.56
2022-10-30T17:29:44.830Z,74.18
2022-10-30T17:32:22.451Z,74.77
2022-10-30T17:35:01.061Z,75.52
2022-10-30T17:37:29.347Z,75.87
2022-10-30T17:39:56.754Z,77.66
2022-10-30T17:42:24.147Z,78.68
2022-10-30T17:44:51.678Z,79.60
2022-10-30T17:47:20.755Z,80.46
2022-10-30T17:49:49.427Z,80.57
2022-10-30T17:52:21.557Z,80.52
2022-10-30T17:54:49.381Z,81.30
2022-10-30T17:57:18.175Z,82.73
2022-10-30T17:59:45.563Z,83.58
2022-10-30T18:02:18.729Z,84.23
2022-10-30T18:04:47.800Z,85.19
2022-10-30T18:07:16.858Z,85.45
2022-10-30T18:09:44.346Z,85.21
2022-10-30T18:12:15.109Z,85.29
2022-10-30T18:14:43.246Z,85.56
2022-10-30T18:17:10.997Z,85.91
2022-10-30T18:19:38.453Z,86.39
2022-10-30T18:22:09.780Z,86.16
2022-10-30T18:24:37.129Z,86.42
2022-10-30T18:27:05.273Z,86.39
2022-10-30T18:29:32.504Z,87.09
2022-10-30T18:31:59.863Z,86.61
2022-10-30T18:34:27.176Z,86.78
2022-10-30T18:36:54.569Z,86.89
2022-10-30T18:39:21.906Z,86.63
2022-10-30T18:41:49.588Z,86.10
2022-10-30T18:44:18.349Z,86.06
2022-10-30T18:46:46.264Z,85.65
2022-10-30T18:49:13.940Z,86.27
2022-10-30T18:51:41.335Z,86.88
2022-10-30T18:54:15.861Z,87.94
2022-10-30T18:56:43.876Z,88.54
2022-10-30T18:59:11.237Z,87.85
2022-10-30T19:01:39.048Z,87.14
2022-10-30T19:04:11.268Z,86.92
2022-10-30T19:06:41.025Z,87.24
2022-10-30T19:09:08.258Z,86.43
2022-10-30T19:11:38.251Z,86.27
2022-10-30T19:14:15.612Z,85.71
2022-10-30T19:16:46.178Z,86.75
2022-10-30T19:19:15.082Z,86.75
2022-10-30T19:21:42.596Z,86.82
2022-10-30T19:24:15.055Z,86.73
2022-10-30T19:26:42.406Z,86.85
2022-10-30T19:29:09.750Z,87.04
2022-10-30T19:31:37.202Z,87.09
2022-10-30T19:34:07.580Z,87.93
2022-10-30T19:36:37.449Z,87.54
2022-10-30T19:39:11.913Z,87.70
2022-10-30T19:41:40.038Z,87.55
2022-10-30T19:44:07.535Z,87.57
2022-10-30T19:46:35.717Z,88.35
2022-10-30T19:49:20.291Z,88.34
2022-10-30T19:51:47.638Z,88.43
2022-10-30T19:54:15.162Z,88.82
2022-10-30T19:56:44.028Z,87.78
2022-10-30T19:59:15.483Z,87.99
2022-10-30T20:01:44.284Z,87.72
2022-10-30T20:04:12.321Z,87.57
2022-10-30T20:06:40.270Z,87.90
2022-10-30T20:09:13.550Z,87.83
2022-10-30T20:11:40.903Z,88.55
2022-10-30T20:14:08.329Z,88.43
2022-10-30T20:16:35.866Z,87.85
2022-10-30T20:19:20.757Z,87.56
2022-10-30T20:21:48.114Z,87.72
2022-10-30T20:24:15.465Z,87.32
2022-10-30T20:26:42.924Z,87.78
2022-10-30T20:29:10.239Z,88.40
2022-10-30T20:31:39.764Z,88.85
2022-10-30T20:34:09.969Z,89.07
2022-10-30T20:36:37.356Z,89.33
2022-10-30T20:39:05.555Z,89.67
2022-10-30T20:41:33.225Z,89.50
2022-10-30T20:44:02.429Z,89.72
2022-10-30T20:46:29.796Z,89.60
2022-10-30T20:49:16.820Z,89.91
2022-10-30T20:51:46.353Z,89.86
2022-10-30T20:54:13.729Z,90.19
2022-10-30T20:56:41.115Z,90.56
2022-10-30T20:59:08.499Z,90.90
2022-10-30T21:01:35.948Z,91.26
2022-10-30T21:04:03.649Z,91.18
2022-10-30T21:06:31.139Z,91.02
2022-10-30T21:08:58.462Z,91.03
2022-10-30T21:11:26.252Z,90.95
2022-10-30T21:13:56.423Z,90.99
2022-10-30T21:16:24.316Z,90.57
2022-10-30T21:18:52.879Z,90.39
2022-10-30T21:21:25.336Z,89.82
2022-10-30T21:23:54.695Z,89.53
2022-10-30T21:26:23.177Z,89.59
2022-10-30T21:28:50.454Z,89.82
2022-10-30T21:31:18.334Z,90.90
2022-10-30T21:33:45.715Z,90.78
2022-10-30T21:36:16.015Z,90.52
2022-10-30T21:38:46.963Z,90.69
2022-10-30T21:41:17.348Z,90.46
2022-10-30T21:43:51.264Z,89.98
2022-10-30T21:46:19.743Z,90.10
2022-10-30T21:48:47.483Z,90.84
2022-10-30T21:51:18.444Z,90.80
2022-10-30T21:53:46.459Z,91.35
2022-10-30T21:56:16.536Z,91.41
2022-10-30T21:58:44.631Z,90.85
2022-10-30T22:01:17.861Z,90.21
2022-10-30T22:03:45.606Z,88.87
2022-10-30T22:06:14.713Z,89.55
2022-10-30T22:08:48.715Z,89.93
2022-10-30T22:11:16.961Z,90.03
2022-10-30T22:13:45.090Z,90.85
2022-10-30T22:16:14.118Z,90.85
2022-10-30T22:18:41.747Z,91.44
2022-10-30T22:21:11.612Z,91.91
2022-10-30T22:23:39.986Z,91.94
2022-10-30T22:26:22.262Z,92.51
2022-10-30T22:28:54.379Z,92.82
2022-10-30T22:31:22.557Z,93.14
2022-10-30T22:33:50.074Z,92.60
2022-10-30T22:36:28.120Z,92.72
2022-10-30T22:39:05.906Z,92.91
2022-10-30T22:41:37.666Z,92.65
2022-10-30T22:44:08.620Z,92.52
2022-10-30T22:46:37.179Z,91.97
2022-10-30T22:49:05.334Z,91.66
2022-10-30T22:51:35.039Z,91.86
2022-10-30T22:54:04.468Z,92.27
2022-10-30T22:56:34.218Z,92.44
2022-10-30T22:59:04.197Z,92.63
2022-10-30T23:01:33.700Z,92.12
2022-10-30T23:04:02.506Z,91.61
2022-10-30T23:06:31.502Z,91.36
2022-10-30T23:09:01.382Z,91.57
2022-10-30T23:11:29.841Z,91.49
2022-10-30T23:13:59.599Z,92.12
2022-10-30T23:16:28.363Z,92.32
2022-10-30T23:18:57.088Z,92.62
2022-10-30T23:21:29.763Z,93.05
2022-10-30T23:23:57.791Z,92.65
2022-10-30T23:26:28.021Z,91.79
2022-10-30T23:28:56.625Z,90.85
2022-10-30T23:31:40.159Z,90.71
2022-10-30T23:34:11.766Z,91.43
2022-10-30T23:36:39.335Z,92.02
2022-10-30T23:39:09.502Z,92.46
2022-10-30T23:41:37.025Z,93.11
2022-10-30T23:44:07.420Z,93.64
2022-10-30T23:46:35.720Z,93.72
2022-10-30T23:49:04.222Z,93.89
2022-10-30T23:51:32.183Z,93.99
2022-10-30T23:53:59.806Z,94.20
2022-10-30T23:56:27.349Z,94.60
2022-10-30T23:58:54.821Z,94.59
